WetterOnline ( http://www.wetteronline.at )

Wetter aktuell Salzburg

Aktuelles Wetter: Salzburg Flughafen (450m)

6-stündlich | Neueste Meldungen
Ortszeit Temperatur Wetter
So, 21.01. 7:00 1.0° C leichter Schneefall
So, 21.01. 1:00 1.2° C leichter Regen
Sa, 20.01. 19:00 1.4° C bedeckt
Sa, 20.01. 13:00 2.9° C bewölkt
Sa, 20.01. 7:00 0.9° C bedeckt
Sa, 20.01. 1:00 0.9° C bewölkt
Fr, 19.01. 19:00 1.2° C wolkig
Fr, 19.01. 13:00 4.2° C leicht bewölkt
Ortszeit Temperatur Wetter
So, 21.01. 11:20 2° C leichte Schneeschauer
So, 21.01. 11:00 0.8° C Schneeschauer
So, 21.01. 10:50 1° C Schneeschauer
So, 21.01. 10:20 2° C leichte Schneeschauer
So, 21.01. 10:00 1.8° C leichte Schneeschauer
So, 21.01. 9:50 2° C leichte Schneeschauer
So, 21.01. 9:20 2° C leichter Schneefall
So, 21.01. 9:00 1.1° C leichter Schneefall
So, 21.01. 8:20 1° C leichter Schneefall
So, 21.01. 8:00 1.1° C leichter Schneefall
Ortszeit Relative Feuchte Sichtweite
So, 21.01. 7:00 94% 12 km
So, 21.01. 1:00 92% 10 km
Sa, 20.01. 19:00 83% 29 km
Sa, 20.01. 13:00 77% 17 km
Sa, 20.01. 7:00 89% 30 km
Sa, 20.01. 1:00 93% 21 km
Fr, 19.01. 19:00 89% 50 km
Fr, 19.01. 13:00 68% 30 km
Ortszeit Relative Feuchte Sichtweite
So, 21.01. 11:20 80% >10 km
So, 21.01. 11:00 94% 1.5 km
So, 21.01. 10:50 93% 4.0 km
So, 21.01. 10:20 87% >10 km
So, 21.01. 10:00 87% 40 km
So, 21.01. 9:50 87% >10 km
So, 21.01. 9:20 87% >10 km
So, 21.01. 9:00 92% 11 km
So, 21.01. 8:20 93% 8 km
So, 21.01. 8:00 93% 6 km
Ortszeit Niederschlagsmenge Niederschlagsart
So, 21.01. 7:00 11 l/m2 in 12 Std. -
So, 21.01. 1:00 3 l/m2 in 6 Std. -
Sa, 20.01. 19:00 0.2 l/m2 in 12 Std. -
Sa, 20.01. 13:00 0.1 l/m2 in 6 Std. -
Sa, 20.01. 7:00 1 l/m2 in 12 Std. -
Sa, 20.01. 1:00 0.2 l/m2 in 6 Std. -
Fr, 19.01. 19:00 3 l/m2 in 12 Std. -
Fr, 19.01. 13:00 3 l/m2 in 6 Std. -
Ortszeit Niederschlagsmenge Niederschlagsart
So, 21.01. 11:20 keine Meldung -
So, 21.01. 11:00 0.4 l/m2 in 1 Std. -
So, 21.01. 10:50 keine Meldung -
So, 21.01. 10:20 keine Meldung -
So, 21.01. 10:00 0.3 l/m2 in 1 Std. -
So, 21.01. 9:50 keine Meldung -
So, 21.01. 9:20 keine Meldung -
So, 21.01. 9:00 0.4 l/m2 in 1 Std. -
So, 21.01. 8:20 keine Meldung -
So, 21.01. 8:00 0.2 l/m2 in 1 Std. -
Ortszeit Stärke Spitze Richtung
km/h Bft. km/h Grad Sektor
So, 21.01. 7:00 7 2 - - -
So, 21.01. 1:00 18 3 - 160° S
Sa, 20.01. 19:00 7 2 - - -
Sa, 20.01. 13:00 11 2 - 190° S
Sa, 20.01. 7:00 4 1 - - -
Sa, 20.01. 1:00 18 3 - 150° SO
Fr, 19.01. 19:00 14 3 - 170° S
Fr, 19.01. 13:00 14 3 50 250° W
Ortszeit Stärke Spitze Richtung
km/h Bft. km/h Grad Sektor
So, 21.01. 11:20 30 5 - 300° NW
So, 21.01. 11:00 32 5 47 300° NW
So, 21.01. 10:50 31 5 - 300° NW
So, 21.01. 10:20 28 4 - 300° NW
So, 21.01. 10:00 25 4 - 300° NW
So, 21.01. 9:50 24 4 46 300° NW
So, 21.01. 9:20 20 4 - 300° NW
So, 21.01. 9:00 11 2 - - -
So, 21.01. 8:20 11 2 - 300° NW
So, 21.01. 8:00 14 3 - 300° NW
Ortszeit Untergrenze Bedeckung Gattung
total tief tief mittel hoch
So, 21.01. 7:00 150 m 8/8 5/8 St - -
So, 21.01. 1:00 240 m 8/8 5/8 - - -
Sa, 20.01. 19:00 1500 m 8/8 7/8 Sc Ac -
Sa, 20.01. 13:00 750 m 7/8 6/8 Sc - -
Sa, 20.01. 7:00 840 m 8/8 5/8 Cu - -
Sa, 20.01. 1:00 210 m 8/8 7/8 - - -
Fr, 19.01. 19:00 840 m 6/8 6/8 Cu - -
Fr, 19.01. 13:00 840 m 5/8 1/8 Cu Ac -
Ortszeit Bedeckungsgrad in Achtel und Wolkenuntergrenze
So, 21.01. 11:20 1-2(240m) 3-4(450m) 5-7(750m)
So, 21.01. 11:00 1(270m) 3(450m) 5(750m)
So, 21.01. 10:50 1-2(270m) 3-4(450m) 5-7(750m)
So, 21.01. 10:20 1-2(270m) 3-4(360m) 5-7(750m)
So, 21.01. 10:00 1(270m) 3(360m) 5(540m)
So, 21.01. 9:50 1-2(270m) 3-4(360m) 5-7(540m)
So, 21.01. 9:20 1-2(240m) 5-7(420m)
So, 21.01. 9:00 1(240m) 3(420m) 5(600m)
So, 21.01. 8:20 1-2(210m) 3-4(300m) 5-7(420m)
So, 21.01. 8:00 1(240m) 3(420m) 5(750m)
Ortszeit Luftdruck NN (hPa) Tendenz (hPa in 3 Std.)
So, 21.01. 7:00 1007 + 4,0
So, 21.01. 1:00 1000 - 1,4
Sa, 20.01. 19:00 1004 - 4,3
Sa, 20.01. 13:00 1012 - 1,8
Sa, 20.01. 7:00 1015 - 0,2
Sa, 20.01. 1:00 1014 - 0,6
Fr, 19.01. 19:00 1015 + 0,5
Fr, 19.01. 13:00 1014 + 1,5
Ortszeit Luftdruck NN (hPa) Tendenz (hPa in 3 Std.)
So, 21.01. 11:20 1011 keine Meldung
So, 21.01. 11:00 1013 + 4,2
So, 21.01. 10:50 1010 keine Meldung
So, 21.01. 10:20 1009 keine Meldung
So, 21.01. 10:00 1010 + 3,1
So, 21.01. 9:50 1008 keine Meldung
So, 21.01. 9:20 1007 keine Meldung
So, 21.01. 9:00 1009 + 2,7
So, 21.01. 8:20 1006 keine Meldung
So, 21.01. 8:00 1008 + 3,2
Ortszeit Schneehöhe (cm)
So, 21.01. 7:00 -
So, 21.01. 1:00 -
Sa, 20.01. 19:00 -
Sa, 20.01. 13:00 -
Sa, 20.01. 7:00 -
Sa, 20.01. 1:00 -
Fr, 19.01. 19:00 -
Fr, 19.01. 13:00 -
Ortszeit Schneehöhe (cm)
So, 21.01. 11:20 -
So, 21.01. 11:00 -
So, 21.01. 10:50 -
So, 21.01. 10:20 -
So, 21.01. 10:00 -
So, 21.01. 9:50 -
So, 21.01. 9:20 -
So, 21.01. 9:00 -
So, 21.01. 8:20 -
So, 21.01. 8:00 -
Link zu dieser Seite / Seite empfehlen

Das Wetter in ...